ENMS  Mosjøen Airport, Kjærstad Airport

Add Bookmark

Norway

Status IATA
Operational MJF
Latitude Longitude
65° 47' 2" N 13° 12' 53" E
65.783997 13.214900
Local (DST + 2) UTC (GMT + 1)
Oct 24, 2014 08:59 Oct 24, 2014 06:59
Sunrise-Sunset Local UTC
Begin Civil Twilight 07:37 05:37
Sunrise 08:31 06:31
Sunset 05:11 15:11
End Civil Twilight 06:05 16:05

Current Weather

METAR Observed VFR
ENMS 240550Z VRB05KT 9999 -RA FEW025 BKN035 04/02 Q1004 Fri, Oct 24, 2014 @ 05:50 UTC
(1 Hour, 9 Minutes ago)
Visual Flight Rules
Wind Visibility Clouds Conditions
Varies at 5 knots (9 kph) 10 km or more
  • Few at 2,500' AGL
  • Broken at 3,500' AGL
  • Light Rain
Temperatures Readings Precipitation
Current Temp 4°C (39°F)
Low Temp 1°C (34°F)
Dewpoint 2°C (36°F)
Wind Chill 2°C (35°F)
Humidity 87%
Altimeter 29.65"Hg
Sea Level Pressure 1004mb
Field Elevation 229.66'
None Recorded

Additional weather within a 92.6km radius of ENMS

Map ICAO Location
ENST 38.9km W (300°)
ENBN 58.2km S (232°)
ENRA 80.9km N (037°)
ESUT 85.2km E (087°)

24 Hour Weather History

Loading
-

24 Hour Weather Graphs

Loading
-

CheckWX.com is intended as a tool to help pilots better visualize weather data. It is not intended as a substitute for an official weather briefing obtained from a Flight Service Station. CheckWX.com does not meet the FAA requirements for an official pre-flight weather briefing. Therefore, it's important that pilots still call and obtain an official FSS pre-flight weather briefing.